Time;durP1;ratioP1;P1;durP2;ratioP2;P2;SDS_P1;SDS_P2;PMS_P1;PMS_P2;Temp;Humidity;BMP_temperature;BMP_pressure;BME280_temperature;BME280_humidity;BME280_pressure;Samples;Min_cycle;Max_cycle;Signal;HPM_P1;HPM_P2
2024/04/02 00:00:33;;;;;;;10.30;6.07;;;;;;;;;;4658203;28;10000494;-57
2024/04/02 00:03:00;;;;;;;10.47;6.13;;;;;;;;;;5011587;28;20021;-55
2024/04/02 00:05:26;;;;;;;9.65;5.68;;;;;;;;;;5011361;28;20431;-56
2024/04/02 00:07:52;;;;;;;9.88;5.80;;;;;;;;;;5011175;28;20053;-57
2024/04/02 00:10:18;;;;;;;9.63;5.70;;;;;;;;;;5024866;28;20096;-56
2024/04/02 00:12:44;;;;;;;10.30;6.00;;;;;;;;;;5010734;28;20025;-56
2024/04/02 00:15:10;;;;;;;10.38;6.10;;;;;;;;;;5009777;28;20022;-58
2024/04/02 00:17:37;;;;;;;10.60;6.20;;;;;;;;;;5011035;28;20029;-56
2024/04/02 00:20:06;;;;;;;10.18;5.97;;;;;;;;;;5010948;28;20025;-57
2024/04/02 00:22:32;;;;;;;10.25;6.00;;;;;;;;;;5012239;28;20032;-58
2024/04/02 00:24:58;;;;;;;10.38;6.10;;;;;;;;;;5040629;28;20022;-53
2024/04/02 00:27:24;;;;;;;10.50;6.13;;;;;;;;;;5025292;28;20372;-52
2024/04/02 00:29:50;;;;;;;10.30;6.05;;;;;;;;;;5015526;28;20026;-55
2024/04/02 00:32:16;;;;;;;10.60;6.30;;;;;;;;;;5011578;28;20034;-54
2024/04/02 00:34:45;;;;;;;11.00;6.75;;;;;;;;;;5010965;28;20038;-57
2024/04/02 00:37:11;;;;;;;10.50;6.20;;;;;;;;;;5010978;28;20044;-55
2024/04/02 00:39:37;;;;;;;10.60;6.20;;;;;;;;;;5010903;28;20049;-56
2024/04/02 00:42:03;;;;;;;10.05;5.90;;;;;;;;;;5010960;28;20530;-56
2024/04/02 00:44:30;;;;;;;10.18;6.00;;;;;;;;;;5010673;28;20030;-54
2024/04/02 00:46:56;;;;;;;10.02;5.90;;;;;;;;;;5010668;28;20119;-56
2024/04/02 00:49:23;;;;;;;10.30;6.10;;;;;;;;;;5010915;28;20488;-56
2024/04/02 00:51:49;;;;;;;9.98;5.90;;;;;;;;;;5011009;28;20022;-52
2024/04/02 00:54:16;;;;;;;10.50;6.20;;;;;;;;;;5010652;28;20565;-56
2024/04/02 00:56:42;;;;;;;10.10;5.93;;;;;;;;;;5010525;28;20033;-55
2024/04/02 00:59:09;;;;;;;10.18;6.00;;;;;;;;;;5010003;28;20026;-54
2024/04/02 01:01:34;;;;;;;10.20;6.03;;;;;;;;;;5010490;28;20486;-55
2024/04/02 01:04:01;;;;;;;10.10;5.95;;;;;;;;;;5010531;28;20041;-53
2024/04/02 01:06:27;;;;;;;10.45;6.18;;;;;;;;;;5010633;28;20026;-55
2024/04/02 01:08:53;;;;;;;10.05;5.95;;;;;;;;;;5025593;28;20396;-54
2024/04/02 01:11:19;;;;;;;10.50;6.10;;;;;;;;;;5010487;28;20030;-55
2024/04/02 01:13:47;;;;;;;10.40;6.10;;;;;;;;;;5010384;28;20079;-55
2024/04/02 01:16:16;;;;;;;10.52;6.20;;;;;;;;;;5010193;28;20092;-51
2024/04/02 01:18:45;;;;;;;10.77;6.50;;;;;;;;;;5010112;28;20026;-54
2024/04/02 01:21:11;;;;;;;10.77;6.30;;;;;;;;;;5010193;28;20028;-55
2024/04/02 01:23:37;;;;;;;10.60;6.30;;;;;;;;;;5009970;28;20105;-55
2024/04/02 01:26:03;;;;;;;10.60;6.20;;;;;;;;;;5010124;28;20045;-58
2024/04/02 01:28:29;;;;;;;10.50;6.20;;;;;;;;;;5010076;28;20025;-53
2024/04/02 01:30:55;;;;;;;10.68;6.28;;;;;;;;;;5009835;28;20025;-55
2024/04/02 01:33:21;;;;;;;10.20;6.00;;;;;;;;;;5010128;28;20033;-54
2024/04/02 01:35:47;;;;;;;11.60;6.50;;;;;;;;;;5010002;28;20025;-56
2024/04/02 01:38:13;;;;;;;10.07;5.93;;;;;;;;;;5009971;28;20401;-58
2024/04/02 01:40:39;;;;;;;10.10;5.90;;;;;;;;;;5009904;28;20133;-56
2024/04/02 01:43:06;;;;;;;10.20;6.00;;;;;;;;;;5024235;28;20025;-56
2024/04/02 01:45:32;;;;;;;9.98;5.80;;;;;;;;;;5009953;28;20021;-53
2024/04/02 01:47:58;;;;;;;10.32;6.07;;;;;;;;;;5009771;28;20038;-55
2024/04/02 01:50:24;;;;;;;10.60;6.20;;;;;;;;;;5009879;28;20037;-56
2024/04/02 01:52:50;;;;;;;11.18;7.00;;;;;;;;;;5009448;28;20033;-56
2024/04/02 01:55:16;;;;;;;11.02;6.30;;;;;;;;;;5009901;28;20556;-55
2024/04/02 01:57:42;;;;;;;10.43;6.10;;;;;;;;;;5009633;28;20053;-54
2024/04/02 02:00:08;;;;;;;10.38;6.15;;;;;;;;;;5009764;28;20026;-56
2024/04/02 02:02:34;;;;;;;10.60;6.30;;;;;;;;;;5009393;28;20395;-55
2024/04/02 02:05:00;;;;;;;10.50;6.20;;;;;;;;;;5009606;28;20106;-53
2024/04/02 02:07:26;;;;;;;10.30;6.10;;;;;;;;;;5009698;28;20030;-54
2024/04/02 02:09:52;;;;;;;12.02;6.95;;;;;;;;;;5009582;28;20042;-54
2024/04/02 02:12:18;;;;;;;11.50;6.70;;;;;;;;;;5009567;28;20056;-55
2024/04/02 02:14:44;;;;;;;11.10;6.50;;;;;;;;;;5009426;28;20022;-54
2024/04/02 02:17:11;;;;;;;10.43;6.18;;;;;;;;;;5009866;28;20022;-56
2024/04/02 02:19:37;;;;;;;11.65;6.80;;;;;;;;;;5009413;28;20018;-54
2024/04/02 02:22:03;;;;;;;10.88;6.38;;;;;;;;;;5009729;28;20053;-56
2024/04/02 02:24:29;;;;;;;10.63;6.28;;;;;;;;;;5009199;28;20032;-56
2024/04/02 02:26:56;;;;;;;10.77;6.30;;;;;;;;;;5009774;28;20044;-53
2024/04/02 02:29:25;;;;;;;10.73;6.30;;;;;;;;;;5009342;28;20026;-53
2024/04/02 02:31:51;;;;;;;10.70;6.30;;;;;;;;;;5024592;28;20109;-57
2024/04/02 02:34:18;;;;;;;11.25;6.72;;;;;;;;;;5009410;28;20030;-54
2024/04/02 02:36:44;;;;;;;11.10;6.50;;;;;;;;;;5024679;28;20026;-54
2024/04/02 02:39:13;;;;;;;10.95;6.40;;;;;;;;;;5012868;28;20407;-56
2024/04/02 02:41:39;;;;;;;11.02;6.40;;;;;;;;;;5013052;28;20262;-56
2024/04/02 02:44:06;;;;;;;11.10;6.50;;;;;;;;;;5012839;28;20032;-56
2024/04/02 02:46:32;;;;;;;12.05;6.90;;;;;;;;;;5012886;28;20030;-57
2024/04/02 02:49:00;;;;;;;11.75;7.07;;;;;;;;;;5013057;28;20552;-56
2024/04/02 02:51:26;;;;;;;12.75;7.50;;;;;;;;;;5012934;28;20026;-56
2024/04/02 02:53:52;;;;;;;11.80;7.18;;;;;;;;;;5012658;28;20037;-53
2024/04/02 02:56:19;;;;;;;10.90;6.40;;;;;;;;;;5012816;28;20372;-56
2024/04/02 02:58:45;;;;;;;12.20;8.05;;;;;;;;;;5012683;28;20028;-52
2024/04/02 03:01:11;;;;;;;10.90;6.30;;;;;;;;;;5012753;28;20144;-56
2024/04/02 03:03:40;;;;;;;10.40;6.10;;;;;;;;;;5012531;28;20134;-55
2024/04/02 03:06:06;;;;;;;10.82;6.30;;;;;;;;;;5012798;28;20105;-55
2024/04/02 03:08:32;;;;;;;10.48;6.13;;;;;;;;;;5017997;28;20041;-56
2024/04/02 03:10:58;;;;;;;10.60;6.20;;;;;;;;;;5027059;28;20386;-58
2024/04/02 03:13:25;;;;;;;11.18;6.53;;;;;;;;;;5025005;28;20033;-56
2024/04/02 03:15:51;;;;;;;22.48;15.25;;;;;;;;;;5013743;28;20057;-55
2024/04/02 03:18:17;;;;;;;10.45;6.18;;;;;;;;;;5011571;28;20058;-55
2024/04/02 03:20:43;;;;;;;11.50;7.10;;;;;;;;;;5012514;28;20480;-53
2024/04/02 03:23:10;;;;;;;10.30;6.07;;;;;;;;;;5012180;28;20036;-53
2024/04/02 03:25:36;;;;;;;10.63;6.22;;;;;;;;;;5012231;28;20029;-56
2024/04/02 03:28:02;;;;;;;10.98;6.45;;;;;;;;;;5012488;28;20037;-59
2024/04/02 03:30:28;;;;;;;10.18;5.97;;;;;;;;;;5012282;28;20026;-53
2024/04/02 03:32:54;;;;;;;11.38;6.50;;;;;;;;;;5012392;28;20034;-56
2024/04/02 03:35:20;;;;;;;11.00;6.45;;;;;;;;;;5012646;28;20034;-54
2024/04/02 03:37:46;;;;;;;11.38;6.30;;;;;;;;;;5012133;28;20062;-57
2024/04/02 03:40:12;;;;;;;12.00;6.70;;;;;;;;;;5027390;28;20049;-51
2024/04/02 03:42:38;;;;;;;10.48;6.18;;;;;;;;;;5011929;28;20018;-49
2024/04/02 03:45:05;;;;;;;11.27;6.50;;;;;;;;;;5027120;28;20022;-51
2024/04/02 03:47:31;;;;;;;10.63;6.22;;;;;;;;;;5011843;28;20105;-56
2024/04/02 03:49:57;;;;;;;10.45;6.13;;;;;;;;;;5010591;28;20564;-52
2024/04/02 03:52:23;;;;;;;10.90;6.40;;;;;;;;;;5011737;28;20034;-57
2024/04/02 03:54:49;;;;;;;11.00;6.40;;;;;;;;;;5011093;28;20121;-51
2024/04/02 03:57:15;;;;;;;10.50;6.20;;;;;;;;;;5011722;28;20033;-53
2024/04/02 03:59:41;;;;;;;10.90;6.45;;;;;;;;;;5011511;28;20534;-57
2024/04/02 04:02:07;;;;;;;10.60;6.28;;;;;;;;;;5011838;28;20032;-55
2024/04/02 04:04:33;;;;;;;10.98;6.40;;;;;;;;;;5026892;28;20423;-54
2024/04/02 04:06:59;;;;;;;11.23;6.90;;;;;;;;;;5011363;28;20026;-53
2024/04/02 04:09:25;;;;;;;11.50;6.70;;;;;;;;;;5011325;28;20033;-54
2024/04/02 04:11:51;;;;;;;11.05;6.43;;;;;;;;;;5011258;28;20056;-55
2024/04/02 04:14:17;;;;;;;12.50;7.25;;;;;;;;;;5011148;28;20035;-54
2024/04/02 04:16:43;;;;;;;11.35;6.70;;;;;;;;;;5011303;28;20472;-55
2024/04/02 04:19:09;;;;;;;11.40;6.65;;;;;;;;;;5011346;28;20443;-54
2024/04/02 04:21:35;;;;;;;11.30;6.60;;;;;;;;;;5011154;28;20026;-54
2024/04/02 04:24:01;;;;;;;11.10;6.50;;;;;;;;;;5011016;28;20018;-54
2024/04/02 04:26:27;;;;;;;11.57;6.80;;;;;;;;;;5010868;28;20511;-54
2024/04/02 04:28:53;;;;;;;11.50;6.78;;;;;;;;;;5010536;28;20049;-50
2024/04/02 04:31:19;;;;;;;11.70;6.80;;;;;;;;;;5011005;28;20022;-57
2024/04/02 04:33:45;;;;;;;11.60;6.90;;;;;;;;;;5010980;28;20029;-54
2024/04/02 04:36:12;;;;;;;11.48;6.72;;;;;;;;;;5010307;28;20045;-52
2024/04/02 04:38:38;;;;;;;11.80;7.00;;;;;;;;;;5010706;28;20025;-52
2024/04/02 04:41:04;;;;;;;12.00;7.00;;;;;;;;;;5010760;28;20029;-54
2024/04/02 04:43:30;;;;;;;11.77;6.90;;;;;;;;;;5010781;28;20024;-56
2024/04/02 04:45:56;;;;;;;11.75;6.85;;;;;;;;;;5026151;28;20037;-55
2024/04/02 04:48:23;;;;;;;12.00;7.00;;;;;;;;;;5011140;28;20022;-55
2024/04/02 04:50:55;;;;;;;12.05;7.03;;;;;;;;;;5026334;28;20408;-56
2024/04/02 04:53:21;;;;;;;12.10;7.00;;;;;;;;;;5010492;28;20014;-54
2024/04/02 04:55:47;;;;;;;11.80;6.90;;;;;;;;;;5011331;28;20682;-53
2024/04/02 04:58:13;;;;;;;11.63;7.10;;;;;;;;;;5010524;28;20037;-56
2024/04/02 05:00:39;;;;;;;12.20;7.10;;;;;;;;;;5010338;28;20100;-54
2024/04/02 05:03:05;;;;;;;11.50;6.70;;;;;;;;;;5010679;28;20028;-56
2024/04/02 05:05:31;;;;;;;11.60;6.80;;;;;;;;;;5026011;28;20029;-55
2024/04/02 05:08:15;;;;;;;11.88;6.90;;;;;;;;;;5010292;28;20032;-58
2024/04/02 05:10:41;;;;;;;14.25;7.28;;;;;;;;;;5025136;28;20030;-56
2024/04/02 05:13:07;;;;;;;11.45;7.00;;;;;;;;;;5010021;28;20388;-54
2024/04/02 05:15:33;;;;;;;11.57;6.72;;;;;;;;;;5010159;28;20524;-56
2024/04/02 05:17:59;;;;;;;11.02;6.50;;;;;;;;;;5009928;28;20396;-52
2024/04/02 05:20:25;;;;;;;11.10;6.53;;;;;;;;;;5009638;28;20022;-51
2024/04/02 05:22:51;;;;;;;10.93;6.40;;;;;;;;;;5009414;28;20030;-54
2024/04/02 05:25:17;;;;;;;11.25;6.55;;;;;;;;;;5010168;28;20018;-59
2024/04/02 05:27:43;;;;;;;10.75;6.28;;;;;;;;;;5010119;28;20037;-50
2024/04/02 05:30:09;;;;;;;11.02;6.47;;;;;;;;;;5009803;28;20038;-53
2024/04/02 05:32:35;;;;;;;11.25;6.55;;;;;;;;;;5009851;28;20022;-52
2024/04/02 05:35:02;;;;;;;11.02;6.43;;;;;;;;;;5007724;28;20028;-57
2024/04/02 05:37:29;;;;;;;10.90;6.40;;;;;;;;;;5032814;28;20411;-56
2024/04/02 05:39:55;;;;;;;10.73;6.30;;;;;;;;;;5009896;28;20411;-56
2024/04/02 05:42:21;;;;;;;10.70;6.30;;;;;;;;;;5042019;28;20091;-56
2024/04/02 05:44:47;;;;;;;11.23;6.70;;;;;;;;;;5010668;28;20050;-54
2024/04/02 05:47:13;;;;;;;12.52;7.95;;;;;;;;;;5009977;28;20022;-52
2024/04/02 05:49:39;;;;;;;11.32;6.63;;;;;;;;;;5009498;28;20030;-51
2024/04/02 05:52:05;;;;;;;11.32;6.68;;;;;;;;;;5009738;28;20116;-55
2024/04/02 05:54:32;;;;;;;11.40;6.70;;;;;;;;;;5013694;28;20060;-58
2024/04/02 05:57:00;;;;;;;12.25;7.00;;;;;;;;;;5050649;28;20481;-55
2024/04/02 05:59:26;;;;;;;11.38;6.65;;;;;;;;;;5018290;28;20456;-55
2024/04/02 06:01:52;;;;;;;10.77;6.35;;;;;;;;;;5042314;28;20029;-55
2024/04/02 06:04:18;;;;;;;10.93;6.40;;;;;;;;;;5010424;28;20026;-55
2024/04/02 06:06:47;;;;;;;12.20;7.10;;;;;;;;;;5009774;28;20401;-57
2024/04/02 06:09:13;;;;;;;;;;;;;;;;;;5009899;28;20113;-54
2024/04/02 06:11:39;;;;;;;11.70;6.80;;;;;;;;;;5009659;28;19998;-55
2024/04/02 06:14:05;;;;;;;13.23;7.25;;;;;;;;;;5013463;28;20517;-54
2024/04/02 06:16:31;;;;;;;15.43;7.72;;;;;;;;;;5013815;28;20034;-53
2024/04/02 06:18:57;;;;;;;10.73;6.30;;;;;;;;;;5013422;28;20026;-51
2024/04/02 06:21:24;;;;;;;11.10;6.50;;;;;;;;;;5013213;28;20494;-56
2024/04/02 06:23:50;;;;;;;10.98;6.40;;;;;;;;;;5011704;28;20040;-56
2024/04/02 06:26:17;;;;;;;10.90;6.40;;;;;;;;;;5012900;28;20025;-52
2024/04/02 06:28:43;;;;;;;10.95;6.43;;;;;;;;;;5013069;28;20217;-53
2024/04/02 06:31:09;;;;;;;13.27;7.65;;;;;;;;;;5013143;28;20511;-52
2024/04/02 06:33:35;;;;;;;12.43;7.07;;;;;;;;;;5012917;28;20033;-52
2024/04/02 06:36:01;;;;;;;10.88;6.35;;;;;;;;;;5012457;28;20028;-56
2024/04/02 06:38:27;;;;;;;10.95;6.40;;;;;;;;;;5012759;28;20025;-52
2024/04/02 06:40:53;;;;;;;11.10;6.47;;;;;;;;;;5012824;28;20025;-55
2024/04/02 06:43:19;;;;;;;11.30;6.60;;;;;;;;;;5012795;28;20030;-55
2024/04/02 06:45:58;;;;;;;11.27;6.60;;;;;;;;;;5012577;28;20515;-51
2024/04/02 06:48:24;;;;;;;12.70;7.45;;;;;;;;;;5012977;28;20026;-52
2024/04/02 06:51:02;;;;;;;11.50;6.80;;;;;;;;;;5012768;28;20033;-55
2024/04/02 06:53:29;;;;;;;11.77;7.00;;;;;;;;;;5012685;28;20144;-54
2024/04/02 06:55:55;;;;;;;10.93;6.40;;;;;;;;;;5012151;28;20149;-56
2024/04/02 06:58:22;;;;;;;12.25;7.10;;;;;;;;;;5012145;28;20048;-55
2024/04/02 07:00:48;;;;;;;11.23;6.55;;;;;;;;;;5027822;28;20025;-55
2024/04/02 07:03:18;;;;;;;12.43;7.30;;;;;;;;;;5012355;28;20025;-50
2024/04/02 07:05:44;;;;;;;14.23;7.55;;;;;;;;;;5012265;28;20033;-54
2024/04/02 07:08:10;;;;;;;13.27;9.18;;;;;;;;;;5012362;28;20037;-57
2024/04/02 07:10:36;;;;;;;14.25;7.43;;;;;;;;;;5012324;28;20030;-50
2024/04/02 07:13:02;;;;;;;11.65;6.85;;;;;;;;;;5012457;28;20030;-55
2024/04/02 07:15:28;;;;;;;11.30;6.60;;;;;;;;;;5012694;28;20553;-53
2024/04/02 07:17:54;;;;;;;10.73;6.30;;;;;;;;;;5012504;28;20476;-53
2024/04/02 07:20:22;;;;;;;10.80;6.40;;;;;;;;;;5012589;28;20028;-51
2024/04/02 07:22:48;;;;;;;11.75;6.97;;;;;;;;;;5012173;28;20026;-57
2024/04/02 07:25:14;;;;;;;12.13;7.30;;;;;;;;;;5012972;28;20072;-56
2024/04/02 07:27:46;;;;;;;11.50;6.80;;;;;;;;;;5012143;28;20030;-57
2024/04/02 07:30:12;;;;;;;13.05;7.55;;;;;;;;;;5012016;28;20114;-55
2024/04/02 07:32:38;;;;;;;11.95;6.90;;;;;;;;;;5013272;28;20060;-55
2024/04/02 07:35:04;;;;;;;10.70;6.30;;;;;;;;;;5012138;28;20029;-51
2024/04/02 07:37:30;;;;;;;10.48;6.20;;;;;;;;;;5011624;28;20030;-56
2024/04/02 07:39:57;;;;;;;13.60;8.00;;;;;;;;;;5011338;28;20040;-55
2024/04/02 07:42:23;;;;;;;13.50;7.90;;;;;;;;;;5012271;28;20033;-55
2024/04/02 07:44:49;;;;;;;13.57;8.10;;;;;;;;;;5011618;28;20018;-55
2024/04/02 07:47:15;;;;;;;13.57;7.88;;;;;;;;;;5011664;28;20101;-54
2024/04/02 07:49:41;;;;;;;12.90;7.50;;;;;;;;;;5011479;28;20445;-57
2024/04/02 07:52:07;;;;;;;13.48;8.13;;;;;;;;;;5012042;28;20041;-55
2024/04/02 07:54:33;;;;;;;12.30;7.18;;;;;;;;;;5011102;28;20029;-53
2024/04/02 07:56:59;;;;;;;11.65;6.80;;;;;;;;;;5026393;28;20033;-52
2024/04/02 07:59:25;;;;;;;11.25;6.60;;;;;;;;;;5011220;28;20022;-51
2024/04/02 08:01:51;;;;;;;11.30;6.60;;;;;;;;;;5011175;28;20064;-52
2024/04/02 08:04:20;;;;;;;11.52;6.72;;;;;;;;;;5011306;28;20096;-55
2024/04/02 08:06:46;;;;;;;15.18;7.65;;;;;;;;;;5011245;28;20084;-56
2024/04/02 08:09:13;;;;;;;11.98;7.07;;;;;;;;;;5011203;28;20030;-54
2024/04/02 08:11:39;;;;;;;10.70;6.25;;;;;;;;;;5011356;28;20121;-52
2024/04/02 08:14:05;;;;;;;12.23;7.35;;;;;;;;;;5010988;28;20540;-55
2024/04/02 08:16:34;;;;;;;11.02;6.40;;;;;;;;;;5011244;28;20080;-53
2024/04/02 08:19:00;;;;;;;10.95;6.32;;;;;;;;;;5010888;28;20508;-55
2024/04/02 08:21:26;;;;;;;12.18;7.28;;;;;;;;;;5010780;28;20066;-52
2024/04/02 08:23:52;;;;;;;10.30;6.03;;;;;;;;;;5010707;28;20029;-55
2024/04/02 08:26:22;;;;;;;11.00;6.50;;;;;;;;;;5010478;28;20081;-56
2024/04/02 08:28:48;;;;;;;11.02;6.45;;;;;;;;;;5010454;28;20130;-54
2024/04/02 08:31:14;;;;;;;24.52;9.55;;;;;;;;;;5010769;28;20061;-55
2024/04/02 08:33:40;;;;;;;11.02;6.45;;;;;;;;;;5010775;28;20032;-56
2024/04/02 08:36:06;;;;;;;11.48;6.68;;;;;;;;;;5010121;28;20022;-53
2024/04/02 08:38:32;;;;;;;11.68;6.88;;;;;;;;;;5018587;28;20044;-56
2024/04/02 08:41:03;;;;;;;11.60;6.75;;;;;;;;;;5023045;28;20056;-55
2024/04/02 08:43:30;;;;;;;12.30;7.30;;;;;;;;;;5019097;28;20026;-54
2024/04/02 08:45:58;;;;;;;12.07;7.32;;;;;;;;;;5011993;28;20030;-56
2024/04/02 08:48:25;;;;;;;11.60;6.75;;;;;;;;;;5010908;28;20124;-58
2024/04/02 08:50:52;;;;;;;11.02;6.45;;;;;;;;;;5010585;28;20030;-57
2024/04/02 08:53:18;;;;;;;11.23;6.47;;;;;;;;;;5010500;28;20037;-57
2024/04/02 08:55:45;;;;;;;11.10;6.50;;;;;;;;;;5010450;28;20126;-56
2024/04/02 08:58:11;;;;;;;11.40;6.78;;;;;;;;;;5009999;28;20530;-51
2024/04/02 09:00:38;;;;;;;31.13;7.97;;;;;;;;;;5010077;28;20396;-56
2024/04/02 09:03:04;;;;;;;10.88;6.38;;;;;;;;;;5008629;28;20022;-55
2024/04/02 09:05:33;;;;;;;27.00;8.07;;;;;;;;;;5010156;28;20045;-53
2024/04/02 09:07:59;;;;;;;11.35;6.65;;;;;;;;;;5010189;28;20022;-52
2024/04/02 09:10:25;;;;;;;10.93;6.43;;;;;;;;;;5008560;28;20539;-53
2024/04/02 09:12:51;;;;;;;17.20;7.30;;;;;;;;;;5009715;28;20030;-55
2024/04/02 09:15:17;;;;;;;12.50;7.25;;;;;;;;;;5010358;28;20034;-56
2024/04/02 09:17:43;;;;;;;15.40;7.47;;;;;;;;;;5010048;28;20029;-58
2024/04/02 09:20:09;;;;;;;13.30;8.05;;;;;;;;;;5012058;28;20026;-51
2024/04/02 09:22:35;;;;;;;12.90;7.75;;;;;;;;;;5010404;28;20102;-53
2024/04/02 09:25:01;;;;;;;12.95;7.45;;;;;;;;;;5009720;28;20165;-54
2024/04/02 09:27:27;;;;;;;13.00;7.57;;;;;;;;;;5009810;28;20565;-51
2024/04/02 09:29:54;;;;;;;12.82;7.60;;;;;;;;;;5008288;28;20044;-53
2024/04/02 09:32:20;;;;;;;12.80;7.40;;;;;;;;;;5009772;28;20084;-57
2024/04/02 09:34:46;;;;;;;13.23;7.90;;;;;;;;;;5008141;28;20154;-55
2024/04/02 09:37:15;;;;;;;13.27;8.10;;;;;;;;;;5009552;28;20029;-50
2024/04/02 09:39:41;;;;;;;13.30;8.02;;;;;;;;;;5009933;28;20089;-54
2024/04/02 09:42:10;;;;;;;13.30;7.80;;;;;;;;;;5009821;28;20068;-53
2024/04/02 09:44:36;;;;;;;;;;;;;;;;;;5009977;28;20030;-55
2024/04/02 09:47:02;;;;;;;13.40;7.82;;;;;;;;;;5008593;28;19912;-50
2024/04/02 09:49:28;;;;;;;13.13;7.78;;;;;;;;;;5009595;28;20026;-50
2024/04/02 09:51:55;;;;;;;13.40;8.13;;;;;;;;;;5009661;28;20152;-53
2024/04/02 09:54:22;;;;;;;14.68;8.55;;;;;;;;;;5009735;28;20026;-55
2024/04/02 09:56:48;;;;;;;13.27;8.00;;;;;;;;;;5009333;28;20396;-56
2024/04/02 09:59:14;;;;;;;13.20;7.90;;;;;;;;;;5009614;28;20580;-50
2024/04/02 10:01:41;;;;;;;13.45;8.05;;;;;;;;;;5009543;28;20096;-51
2024/04/02 10:04:10;;;;;;;14.32;8.65;;;;;;;;;;5009367;28;20037;-54
2024/04/02 10:06:37;;;;;;;13.35;7.90;;;;;;;;;;5009544;28;20101;-53
2024/04/02 10:09:04;;;;;;;14.02;8.30;;;;;;;;;;5009131;28;20030;-55
2024/04/02 10:11:36;;;;;;;13.35;7.82;;;;;;;;;;5007843;28;20034;-51
2024/04/02 10:14:09;;;;;;;13.45;8.30;;;;;;;;;;5008844;28;20026;-61
2024/04/02 10:16:39;;;;;;;18.17;8.05;;;;;;;;;;5009034;28;20021;-57
2024/04/02 10:19:05;;;;;;;14.15;8.55;;;;;;;;;;5009003;28;20037;-54
2024/04/02 10:21:33;;;;;;;13.30;7.90;;;;;;;;;;5009283;28;20488;-52
2024/04/02 10:23:59;;;;;;;13.45;7.97;;;;;;;;;;5009464;28;20018;-52
2024/04/02 10:26:30;;;;;;;15.52;8.40;;;;;;;;;;5009479;28;20099;-55
2024/04/02 10:28:56;;;;;;;13.55;8.40;;;;;;;;;;5009200;28;20412;-55
2024/04/02 10:31:22;;;;;;;13.27;7.75;;;;;;;;;;5007753;28;20022;-54
2024/04/02 10:33:50;;;;;;;13.27;7.80;;;;;;;;;;5009067;28;20036;-54
2024/04/02 10:36:16;;;;;;;13.38;8.05;;;;;;;;;;5008878;28;20522;-54
2024/04/02 10:38:42;;;;;;;12.90;7.50;;;;;;;;;;5008645;28;20049;-54
2024/04/02 10:41:08;;;;;;;13.30;7.90;;;;;;;;;;5008645;28;20422;-55
2024/04/02 10:43:35;;;;;;;13.68;8.70;;;;;;;;;;5008770;28;20447;-56
2024/04/02 10:46:01;;;;;;;13.50;8.50;;;;;;;;;;5009462;28;20105;-50
2024/04/02 10:48:27;;;;;;;16.20;8.30;;;;;;;;;;5009030;28;20057;-54
2024/04/02 10:50:53;;;;;;;13.30;8.10;;;;;;;;;;5008723;28;20030;-54
2024/04/02 10:53:19;;;;;;;13.57;8.60;;;;;;;;;;5008736;28;20054;-54
2024/04/02 10:55:47;;;;;;;13.40;8.10;;;;;;;;;;5009006;28;20052;-54
2024/04/02 10:58:14;;;;;;;13.68;8.80;;;;;;;;;;5009713;28;20064;-51
2024/04/02 11:00:40;;;;;;;13.52;8.50;;;;;;;;;;5012345;28;20123;-47
2024/04/02 11:03:06;;;;;;;13.55;8.40;;;;;;;;;;5012384;28;20022;-53
2024/04/02 11:05:32;;;;;;;13.50;8.48;;;;;;;;;;5012266;28;20046;-52
2024/04/02 11:07:59;;;;;;;13.50;8.50;;;;;;;;;;5011072;28;20073;-54
2024/04/02 11:10:25;;;;;;;13.52;8.43;;;;;;;;;;5012007;28;20389;-58
2024/04/02 11:12:51;;;;;;;13.68;8.82;;;;;;;;;;5010335;28;20045;-55
2024/04/02 11:15:21;;;;;;;13.60;8.60;;;;;;;;;;5012227;28;20041;-52
2024/04/02 11:17:47;;;;;;;13.57;8.63;;;;;;;;;;5011438;28;20033;-51
2024/04/02 11:20:13;;;;;;;13.80;9.00;;;;;;;;;;5011929;28;20029;-54
2024/04/02 11:25:24;;;;;;;13.57;8.55;;;;;;;;;;5018810;28;20060;-54
2024/04/02 11:27:51;;;;;;;13.63;8.73;;;;;;;;;;5019210;28;20026;-57
2024/04/02 11:30:21;;;;;;;13.68;8.90;;;;;;;;;;5017969;28;20480;-55
2024/04/02 11:32:48;;;;;;;13.63;8.77;;;;;;;;;;5011980;28;20531;-54
2024/04/02 11:35:15;;;;;;;13.70;8.90;;;;;;;;;;5011803;28;20040;-53
2024/04/02 11:37:41;;;;;;;13.70;9.07;;;;;;;;;;5011699;28;20030;-55
2024/04/02 11:40:16;;;;;;;13.90;8.23;;;;;;;;;;5011295;28;20018;-49
2024/04/02 11:42:43;;;;;;;13.25;8.13;;;;;;;;;;5011713;28;20105;-50
2024/04/02 11:45:09;;;;;;;13.70;8.68;;;;;;;;;;5012170;28;20101;-53
2024/04/02 11:47:35;;;;;;;13.35;8.27;;;;;;;;;;5011574;28;20037;-53
2024/04/02 11:50:01;;;;;;;13.43;8.18;;;;;;;;;;5011308;28;20745;-51
2024/04/02 11:52:28;;;;;;;13.55;8.63;;;;;;;;;;5026264;28;20025;-55
2024/04/02 11:54:54;;;;;;;13.70;8.88;;;;;;;;;;5010732;28;20062;-51
2024/04/02 12:00:11;;;;;;;;;;;;;;;;;;;;;
2024/04/02 12:02:40;;;;;;;13.63;8.65;;;;;;;;;;5011930;28;20034;-55
2024/04/02 12:05:07;;;;;;;13.55;8.48;;;;;;;;;;5011249;28;20022;-55
2024/04/02 12:07:33;;;;;;;18.55;8.88;;;;;;;;;;5010810;28;20032;-55
2024/04/02 12:09:59;;;;;;;15.65;9.07;;;;;;;;;;5010100;28;20638;-52
2024/04/02 12:12:29;;;;;;;13.40;8.18;;;;;;;;;;5026806;28;20044;-54
2024/04/02 12:14:55;;;;;;;13.45;8.25;;;;;;;;;;5011360;28;20104;-55
2024/04/02 12:17:22;;;;;;;13.70;8.80;;;;;;;;;;5010904;28;20032;-60
2024/04/02 12:19:48;;;;;;;13.52;8.35;;;;;;;;;;5010962;28;20022;-51
2024/04/02 12:22:14;;;;;;;13.35;7.97;;;;;;;;;;5011112;28;20471;-54
2024/04/02 12:24:40;;;;;;;13.40;8.07;;;;;;;;;;5010755;28;20026;-55
2024/04/02 12:27:06;;;;;;;13.60;8.50;;;;;;;;;;5010885;28;20022;-53
2024/04/02 12:29:33;;;;;;;14.20;8.60;;;;;;;;;;5010699;28;20557;-55
2024/04/02 12:31:59;;;;;;;13.32;8.02;;;;;;;;;;5010633;28;20489;-51
2024/04/02 12:34:26;;;;;;;13.35;7.97;;;;;;;;;;5009950;28;20030;-49
2024/04/02 12:36:53;;;;;;;13.35;8.05;;;;;;;;;;5009582;28;20057;-54
2024/04/02 12:39:19;;;;;;;13.23;7.88;;;;;;;;;;5009840;28;20604;-51
2024/04/02 12:41:45;;;;;;;13.43;8.38;;;;;;;;;;5010517;28;20041;-51
2024/04/02 12:44:11;;;;;;;13.43;8.18;;;;;;;;;;5010188;28;20153;-55
2024/04/02 12:46:37;;;;;;;13.43;8.13;;;;;;;;;;5010540;28;20061;-51
2024/04/02 12:49:06;;;;;;;13.27;7.70;;;;;;;;;;5010656;28;20065;-50
2024/04/02 12:51:32;;;;;;;14.30;9.38;;;;;;;;;;5010619;28;20257;-53
2024/04/02 12:53:58;;;;;;;23.95;21.85;;;;;;;;;;5010573;28;20084;-50
2024/04/02 12:56:24;;;;;;;37.92;34.83;;;;;;;;;;5008953;28;20511;-55
2024/04/02 12:58:53;;;;;;;40.70;37.75;;;;;;;;;;5008780;28;20022;-56
2024/04/02 13:01:19;;;;;;;38.70;35.55;;;;;;;;;;5008952;28;20128;-50
2024/04/02 13:03:46;;;;;;;39.30;36.20;;;;;;;;;;5008992;28;20496;-49
2024/04/02 13:06:12;;;;;;;29.77;27.48;;;;;;;;;;5008677;28;20110;-55
2024/04/02 13:08:44;;;;;;;26.60;24.42;;;;;;;;;;5008625;28;20033;-53
2024/04/02 13:11:10;;;;;;;23.35;21.35;;;;;;;;;;5009775;28;20025;-56
2024/04/02 13:13:36;;;;;;;20.45;18.55;;;;;;;;;;5009690;28;20025;-56
2024/04/02 13:16:08;;;;;;;19.27;17.48;;;;;;;;;;5010382;28;20018;-53
2024/04/02 13:18:37;;;;;;;19.80;17.80;;;;;;;;;;5010436;28;20036;-54
2024/04/02 13:21:03;;;;;;;19.55;17.73;;;;;;;;;;5009967;28;20042;-56
2024/04/02 13:23:29;;;;;;;18.38;16.58;;;;;;;;;;5009528;28;20081;-54
2024/04/02 13:25:55;;;;;;;24.98;16.00;;;;;;;;;;5010249;28;20057;-57
2024/04/02 13:28:21;;;;;;;16.88;15.18;;;;;;;;;;5010008;28;20048;-55
2024/04/02 13:30:47;;;;;;;16.35;14.65;;;;;;;;;;5008270;28;20025;-55
2024/04/02 13:33:14;;;;;;;15.30;13.43;;;;;;;;;;5009291;28;20682;-52
2024/04/02 13:35:40;;;;;;;15.00;12.50;;;;;;;;;;5009876;28;20026;-53
2024/04/02 13:38:06;;;;;;;14.30;10.57;;;;;;;;;;5009697;28;20195;-52
2024/04/02 13:40:32;;;;;;;14.68;9.95;;;;;;;;;;5009966;28;20029;-52
2024/04/02 13:42:58;;;;;;;13.80;9.25;;;;;;;;;;5009875;28;20037;-55
2024/04/02 13:45:24;;;;;;;15.15;9.60;;;;;;;;;;5008407;28;20056;-56
2024/04/02 13:47:50;;;;;;;13.73;9.10;;;;;;;;;;5008460;28;20055;-55
2024/04/02 13:50:16;;;;;;;13.60;8.65;;;;;;;;;;5008141;28;20021;-56
2024/04/02 13:52:42;;;;;;;13.48;8.30;;;;;;;;;;5009570;28;20074;-55
2024/04/02 13:55:08;;;;;;;14.20;8.60;;;;;;;;;;5009524;28;20131;-52
2024/04/02 13:57:34;;;;;;;13.95;8.30;;;;;;;;;;5009425;28;20025;-58
2024/04/02 14:00:00;;;;;;;12.07;7.05;;;;;;;;;;5007976;28;20022;-52
2024/04/02 14:02:26;;;;;;;12.55;7.28;;;;;;;;;;5007943;28;20029;-55
2024/04/02 14:04:52;;;;;;;12.40;7.22;;;;;;;;;;5014456;28;20022;-57
2024/04/02 14:07:20;;;;;;;13.90;8.20;;;;;;;;;;5014908;28;20065;-58
2024/04/02 14:09:46;;;;;;;13.53;8.27;;;;;;;;;;5014050;28;20030;-53
2024/04/02 14:12:12;;;;;;;14.02;9.18;;;;;;;;;;5009492;28;20406;-57
2024/04/02 14:14:40;;;;;;;13.00;7.60;;;;;;;;;;5009155;28;20042;-51
2024/04/02 14:17:06;;;;;;;15.25;9.98;;;;;;;;;;5009677;28;20029;-54
2024/04/02 14:19:32;;;;;;;13.50;8.35;;;;;;;;;;5009380;28;20214;-53
2024/04/02 14:22:00;;;;;;;14.10;8.40;;;;;;;;;;5009099;28;20045;-52
2024/04/02 14:24:26;;;;;;;13.70;8.60;;;;;;;;;;5008926;28;20030;-54
2024/04/02 14:26:52;;;;;;;16.35;9.38;;;;;;;;;;5008856;28;20022;-54
2024/04/02 14:29:18;;;;;;;13.60;7.80;;;;;;;;;;5009025;28;20022;-55
2024/04/02 14:31:44;;;;;;;13.20;7.70;;;;;;;;;;5009964;28;20424;-55